sensor_id;sensor_type;location;lat;lon;timestamp;P1;durP1;ratioP1;P2;durP2;ratioP2
75209;SDS011;63796;53.136;14.882;2023-12-29T00:00:09;1.90;;;0.40;;
75209;SDS011;63796;53.136;14.882;2023-12-29T00:02:57;2.00;;;0.60;;
75209;SDS011;63796;53.136;14.882;2023-12-29T00:05:24;2.50;;;0.40;;
75209;SDS011;63796;53.136;14.882;2023-12-29T00:07:52;2.70;;;0.40;;
75209;SDS011;63796;53.136;14.882;2023-12-29T00:10:19;1.80;;;0.80;;
75209;SDS011;63796;53.136;14.882;2023-12-29T00:12:47;1.90;;;0.40;;
75209;SDS011;63796;53.136;14.882;2023-12-29T00:15:17;2.70;;;0.40;;
75209;SDS011;63796;53.136;14.882;2023-12-29T00:17:45;3.70;;;0.50;;
75209;SDS011;63796;53.136;14.882;2023-12-29T00:20:14;1.20;;;0.50;;
75209;SDS011;63796;53.136;14.882;2023-12-29T00:22:59;3.40;;;0.40;;
75209;SDS011;63796;53.136;14.882;2023-12-29T00:25:27;2.90;;;0.40;;
75209;SDS011;63796;53.136;14.882;2023-12-29T00:27:54;1.10;;;0.30;;
75209;SDS011;63796;53.136;14.882;2023-12-29T00:30:21;3.10;;;0.70;;
75209;SDS011;63796;53.136;14.882;2023-12-29T00:32:49;3.20;;;0.50;;
75209;SDS011;63796;53.136;14.882;2023-12-29T00:35:16;4.60;;;0.60;;
75209;SDS011;63796;53.136;14.882;2023-12-29T00:37:44;1.50;;;0.40;;
75209;SDS011;63796;53.136;14.882;2023-12-29T00:40:11;0.70;;;0.40;;
75209;SDS011;63796;53.136;14.882;2023-12-29T00:42:39;1.00;;;0.60;;
75209;SDS011;63796;53.136;14.882;2023-12-29T00:45:07;1.20;;;0.60;;
75209;SDS011;63796;53.136;14.882;2023-12-29T00:47:34;2.90;;;0.80;;
75209;SDS011;63796;53.136;14.882;2023-12-29T00:50:02;1.70;;;0.40;;
75209;SDS011;63796;53.136;14.882;2023-12-29T00:52:29;2.60;;;0.50;;
75209;SDS011;63796;53.136;14.882;2023-12-29T00:54:57;2.00;;;0.90;;
75209;SDS011;63796;53.136;14.882;2023-12-29T00:57:24;4.10;;;0.60;;
75209;SDS011;63796;53.136;14.882;2023-12-29T00:59:51;0.80;;;0.20;;
75209;SDS011;63796;53.136;14.882;2023-12-29T01:02:19;1.60;;;0.20;;
75209;SDS011;63796;53.136;14.882;2023-12-29T01:04:46;3.40;;;0.40;;
75209;SDS011;63796;53.136;14.882;2023-12-29T01:07:14;2.80;;;0.60;;
75209;SDS011;63796;53.136;14.882;2023-12-29T01:09:41;0.70;;;0.40;;
75209;SDS011;63796;53.136;14.882;2023-12-29T01:12:09;2.20;;;0.30;;
75209;SDS011;63796;53.136;14.882;2023-12-29T01:14:36;2.00;;;0.40;;
75209;SDS011;63796;53.136;14.882;2023-12-29T01:17:04;2.50;;;0.30;;
75209;SDS011;63796;53.136;14.882;2023-12-29T01:19:32;1.70;;;0.50;;
75209;SDS011;63796;53.136;14.882;2023-12-29T01:22:00;0.60;;;0.30;;
75209;SDS011;63796;53.136;14.882;2023-12-29T01:24:27;2.20;;;0.30;;
75209;SDS011;63796;53.136;14.882;2023-12-29T01:27:08;0.60;;;0.20;;
75209;SDS011;63796;53.136;14.882;2023-12-29T01:29:35;2.50;;;0.30;;
75209;SDS011;63796;53.136;14.882;2023-12-29T01:32:04;1.30;;;0.80;;
75209;SDS011;63796;53.136;14.882;2023-12-29T01:34:34;1.90;;;0.50;;
75209;SDS011;63796;53.136;14.882;2023-12-29T01:37:04;0.30;;;0.10;;
75209;SDS011;63796;53.136;14.882;2023-12-29T01:39:33;0.70;;;0.30;;
75209;SDS011;63796;53.136;14.882;2023-12-29T01:42:02;1.60;;;0.30;;
75209;SDS011;63796;53.136;14.882;2023-12-29T01:44:29;1.40;;;0.20;;
75209;SDS011;63796;53.136;14.882;2023-12-29T01:46:59;2.40;;;0.40;;
75209;SDS011;63796;53.136;14.882;2023-12-29T01:49:27;0.50;;;0.30;;
75209;SDS011;63796;53.136;14.882;2023-12-29T01:52:00;1.00;;;0.50;;
75209;SDS011;63796;53.136;14.882;2023-12-29T01:54:34;3.90;;;0.40;;
75209;SDS011;63796;53.136;14.882;2023-12-29T01:57:02;0.90;;;0.50;;
75209;SDS011;63796;53.136;14.882;2023-12-29T01:59:31;1.40;;;0.50;;
75209;SDS011;63796;53.136;14.882;2023-12-29T02:01:58;0.90;;;0.40;;
75209;SDS011;63796;53.136;14.882;2023-12-29T02:04:27;0.70;;;0.30;;
75209;SDS011;63796;53.136;14.882;2023-12-29T02:06:55;4.90;;;0.50;;
75209;SDS011;63796;53.136;14.882;2023-12-29T02:09:23;1.20;;;0.30;;
75209;SDS011;63796;53.136;14.882;2023-12-29T02:11:50;1.40;;;0.30;;
75209;SDS011;63796;53.136;14.882;2023-12-29T02:14:18;2.20;;;0.40;;
75209;SDS011;63796;53.136;14.882;2023-12-29T02:21:50;0.90;;;0.30;;
75209;SDS011;63796;53.136;14.882;2023-12-29T02:24:17;0.60;;;0.30;;
75209;SDS011;63796;53.136;14.882;2023-12-29T02:26:49;1.20;;;0.50;;
75209;SDS011;63796;53.136;14.882;2023-12-29T02:29:20;3.20;;;0.70;;
75209;SDS011;63796;53.136;14.882;2023-12-29T02:31:50;1.60;;;0.40;;
75209;SDS011;63796;53.136;14.882;2023-12-29T02:34:22;1.90;;;0.50;;
75209;SDS011;63796;53.136;14.882;2023-12-29T02:36:51;0.70;;;0.20;;
75209;SDS011;63796;53.136;14.882;2023-12-29T02:39:19;0.90;;;0.20;;
75209;SDS011;63796;53.136;14.882;2023-12-29T02:41:46;1.20;;;0.40;;
75209;SDS011;63796;53.136;14.882;2023-12-29T02:44:13;0.70;;;0.40;;
75209;SDS011;63796;53.136;14.882;2023-12-29T02:46:42;0.90;;;0.30;;
75209;SDS011;63796;53.136;14.882;2023-12-29T02:49:09;2.10;;;0.50;;
75209;SDS011;63796;53.136;14.882;2023-12-29T02:51:40;2.50;;;0.50;;
75209;SDS011;63796;53.136;14.882;2023-12-29T02:54:07;1.00;;;0.50;;
75209;SDS011;63796;53.136;14.882;2023-12-29T02:56:35;1.80;;;0.40;;
75209;SDS011;63796;53.136;14.882;2023-12-29T02:59:02;1.50;;;0.60;;
75209;SDS011;63796;53.136;14.882;2023-12-29T03:01:30;1.40;;;0.20;;
75209;SDS011;63796;53.136;14.882;2023-12-29T03:03:58;1.00;;;0.50;;
75209;SDS011;63796;53.136;14.882;2023-12-29T03:06:27;3.30;;;0.50;;
75209;SDS011;63796;53.136;14.882;2023-12-29T03:08:55;1.40;;;0.40;;
75209;SDS011;63796;53.136;14.882;2023-12-29T03:11:23;1.10;;;0.30;;
75209;SDS011;63796;53.136;14.882;2023-12-29T03:13:50;2.30;;;0.40;;
75209;SDS011;63796;53.136;14.882;2023-12-29T03:16:18;1.70;;;0.20;;
75209;SDS011;63796;53.136;14.882;2023-12-29T03:18:45;2.50;;;0.30;;
75209;SDS011;63796;53.136;14.882;2023-12-29T03:21:13;1.80;;;0.40;;
75209;SDS011;63796;53.136;14.882;2023-12-29T03:23:40;0.20;;;0.10;;
75209;SDS011;63796;53.136;14.882;2023-12-29T03:26:07;0.90;;;0.50;;
75209;SDS011;63796;53.136;14.882;2023-12-29T03:28:35;2.80;;;0.20;;
75209;SDS011;63796;53.136;14.882;2023-12-29T03:31:03;1.70;;;0.20;;
75209;SDS011;63796;53.136;14.882;2023-12-29T03:33:31;0.80;;;0.30;;
75209;SDS011;63796;53.136;14.882;2023-12-29T03:35:59;1.10;;;0.30;;
75209;SDS011;63796;53.136;14.882;2023-12-29T03:38:26;1.70;;;0.40;;
75209;SDS011;63796;53.136;14.882;2023-12-29T03:40:53;1.80;;;0.60;;
75209;SDS011;63796;53.136;14.882;2023-12-29T03:43:21;0.70;;;0.30;;
75209;SDS011;63796;53.136;14.882;2023-12-29T03:45:48;3.30;;;0.40;;
75209;SDS011;63796;53.136;14.882;2023-12-29T03:48:16;1.30;;;0.40;;
75209;SDS011;63796;53.136;14.882;2023-12-29T03:50:43;1.60;;;0.20;;
75209;SDS011;63796;53.136;14.882;2023-12-29T03:53:11;5.20;;;1.70;;
75209;SDS011;63796;53.136;14.882;2023-12-29T03:55:39;0.70;;;0.20;;
75209;SDS011;63796;53.136;14.882;2023-12-29T03:58:06;0.40;;;0.10;;
75209;SDS011;63796;53.136;14.882;2023-12-29T04:00:34;1.40;;;0.30;;
75209;SDS011;63796;53.136;14.882;2023-12-29T04:03:02;5.20;;;0.40;;
75209;SDS011;63796;53.136;14.882;2023-12-29T04:05:29;0.40;;;0.20;;
75209;SDS011;63796;53.136;14.882;2023-12-29T04:07:57;1.30;;;0.30;;
75209;SDS011;63796;53.136;14.882;2023-12-29T04:10:25;1.80;;;0.30;;
75209;SDS011;63796;53.136;14.882;2023-12-29T04:12:53;1.40;;;0.40;;
75209;SDS011;63796;53.136;14.882;2023-12-29T04:15:20;0.70;;;0.30;;
75209;SDS011;63796;53.136;14.882;2023-12-29T04:17:47;1.60;;;0.20;;
75209;SDS011;63796;53.136;14.882;2023-12-29T04:20:15;1.30;;;0.20;;
75209;SDS011;63796;53.136;14.882;2023-12-29T04:22:46;1.90;;;0.20;;
75209;SDS011;63796;53.136;14.882;2023-12-29T04:25:14;2.00;;;0.30;;
75209;SDS011;63796;53.136;14.882;2023-12-29T04:27:41;1.10;;;0.40;;
75209;SDS011;63796;53.136;14.882;2023-12-29T04:30:09;2.30;;;0.30;;
75209;SDS011;63796;53.136;14.882;2023-12-29T04:32:37;1.20;;;0.30;;
75209;SDS011;63796;53.136;14.882;2023-12-29T04:35:05;1.70;;;0.40;;
75209;SDS011;63796;53.136;14.882;2023-12-29T04:37:33;1.40;;;0.50;;
75209;SDS011;63796;53.136;14.882;2023-12-29T04:40:00;2.30;;;0.20;;
75209;SDS011;63796;53.136;14.882;2023-12-29T04:42:28;1.00;;;0.30;;
75209;SDS011;63796;53.136;14.882;2023-12-29T04:44:56;0.90;;;0.40;;
75209;SDS011;63796;53.136;14.882;2023-12-29T04:47:24;2.00;;;0.30;;
75209;SDS011;63796;53.136;14.882;2023-12-29T04:49:51;1.60;;;0.20;;
75209;SDS011;63796;53.136;14.882;2023-12-29T04:52:20;1.80;;;0.50;;
75209;SDS011;63796;53.136;14.882;2023-12-29T04:54:47;2.60;;;0.40;;
75209;SDS011;63796;53.136;14.882;2023-12-29T04:57:16;0.60;;;0.10;;
75209;SDS011;63796;53.136;14.882;2023-12-29T04:59:44;2.80;;;0.30;;
75209;SDS011;63796;53.136;14.882;2023-12-29T05:02:12;0.70;;;0.40;;
75209;SDS011;63796;53.136;14.882;2023-12-29T05:04:39;1.10;;;0.30;;
75209;SDS011;63796;53.136;14.882;2023-12-29T05:07:08;1.40;;;0.50;;
75209;SDS011;63796;53.136;14.882;2023-12-29T05:09:36;2.30;;;0.30;;
75209;SDS011;63796;53.136;14.882;2023-12-29T05:12:04;0.90;;;0.20;;
75209;SDS011;63796;53.136;14.882;2023-12-29T05:14:31;3.00;;;0.70;;
75209;SDS011;63796;53.136;14.882;2023-12-29T05:16:59;1.40;;;0.50;;
75209;SDS011;63796;53.136;14.882;2023-12-29T05:19:26;1.00;;;0.50;;
75209;SDS011;63796;53.136;14.882;2023-12-29T05:21:54;1.80;;;0.30;;
75209;SDS011;63796;53.136;14.882;2023-12-29T05:24:21;2.10;;;0.50;;
75209;SDS011;63796;53.136;14.882;2023-12-29T05:26:49;0.60;;;0.20;;
75209;SDS011;63796;53.136;14.882;2023-12-29T05:29:16;6.40;;;0.40;;
75209;SDS011;63796;53.136;14.882;2023-12-29T05:31:43;1.30;;;0.20;;
75209;SDS011;63796;53.136;14.882;2023-12-29T05:34:11;0.80;;;0.40;;
75209;SDS011;63796;53.136;14.882;2023-12-29T05:36:38;1.20;;;0.20;;
75209;SDS011;63796;53.136;14.882;2023-12-29T05:39:06;1.40;;;0.30;;
75209;SDS011;63796;53.136;14.882;2023-12-29T05:41:34;1.30;;;0.30;;
75209;SDS011;63796;53.136;14.882;2023-12-29T05:44:01;2.60;;;0.40;;
75209;SDS011;63796;53.136;14.882;2023-12-29T05:46:28;0.70;;;0.20;;
75209;SDS011;63796;53.136;14.882;2023-12-29T05:48:56;0.60;;;0.40;;
75209;SDS011;63796;53.136;14.882;2023-12-29T05:51:24;0.50;;;0.20;;
75209;SDS011;63796;53.136;14.882;2023-12-29T05:53:51;2.00;;;0.20;;
75209;SDS011;63796;53.136;14.882;2023-12-29T05:56:18;0.70;;;0.30;;
75209;SDS011;63796;53.136;14.882;2023-12-29T05:58:48;1.10;;;0.30;;
75209;SDS011;63796;53.136;14.882;2023-12-29T06:01:16;0.70;;;0.40;;
75209;SDS011;63796;53.136;14.882;2023-12-29T06:03:43;1.50;;;0.30;;
75209;SDS011;63796;53.136;14.882;2023-12-29T06:06:11;0.20;;;0.20;;
75209;SDS011;63796;53.136;14.882;2023-12-29T06:08:38;1.20;;;0.30;;
75209;SDS011;63796;53.136;14.882;2023-12-29T06:11:06;0.50;;;0.20;;
75209;SDS011;63796;53.136;14.882;2023-12-29T06:13:34;0.50;;;0.30;;
75209;SDS011;63796;53.136;14.882;2023-12-29T06:16:01;3.00;;;0.40;;
75209;SDS011;63796;53.136;14.882;2023-12-29T06:18:28;0.60;;;0.20;;
75209;SDS011;63796;53.136;14.882;2023-12-29T06:20:56;1.90;;;0.10;;
75209;SDS011;63796;53.136;14.882;2023-12-29T06:23:23;0.50;;;0.10;;
75209;SDS011;63796;53.136;14.882;2023-12-29T06:25:52;0.50;;;0.10;;
75209;SDS011;63796;53.136;14.882;2023-12-29T06:28:20;1.50;;;0.40;;
75209;SDS011;63796;53.136;14.882;2023-12-29T06:30:47;1.50;;;0.30;;
75209;SDS011;63796;53.136;14.882;2023-12-29T06:33:15;0.70;;;0.20;;
75209;SDS011;63796;53.136;14.882;2023-12-29T06:35:42;0.90;;;0.20;;
75209;SDS011;63796;53.136;14.882;2023-12-29T06:38:10;1.50;;;0.20;;
75209;SDS011;63796;53.136;14.882;2023-12-29T06:40:37;0.60;;;0.20;;
75209;SDS011;63796;53.136;14.882;2023-12-29T06:43:05;0.70;;;0.10;;
75209;SDS011;63796;53.136;14.882;2023-12-29T06:45:32;1.70;;;0.10;;
75209;SDS011;63796;53.136;14.882;2023-12-29T06:48:00;1.10;;;0.10;;
75209;SDS011;63796;53.136;14.882;2023-12-29T06:50:28;1.60;;;0.60;;
75209;SDS011;63796;53.136;14.882;2023-12-29T06:52:55;0.40;;;0.10;;
75209;SDS011;63796;53.136;14.882;2023-12-29T06:55:24;0.70;;;0.20;;
75209;SDS011;63796;53.136;14.882;2023-12-29T06:57:52;0.40;;;0.20;;
75209;SDS011;63796;53.136;14.882;2023-12-29T07:00:20;1.50;;;0.10;;
75209;SDS011;63796;53.136;14.882;2023-12-29T07:02:47;1.70;;;0.30;;
75209;SDS011;63796;53.136;14.882;2023-12-29T07:05:15;2.50;;;0.10;;
75209;SDS011;63796;53.136;14.882;2023-12-29T07:07:42;2.30;;;0.30;;
75209;SDS011;63796;53.136;14.882;2023-12-29T07:10:12;0.70;;;0.30;;
75209;SDS011;63796;53.136;14.882;2023-12-29T07:12:41;1.90;;;0.20;;
75209;SDS011;63796;53.136;14.882;2023-12-29T07:15:09;2.30;;;0.30;;
75209;SDS011;63796;53.136;14.882;2023-12-29T07:17:37;1.70;;;0.10;;
75209;SDS011;63796;53.136;14.882;2023-12-29T07:20:05;1.00;;;0.50;;
75209;SDS011;63796;53.136;14.882;2023-12-29T07:22:34;1.40;;;0.30;;
75209;SDS011;63796;53.136;14.882;2023-12-29T07:25:01;0.50;;;0.20;;
75209;SDS011;63796;53.136;14.882;2023-12-29T07:27:29;2.40;;;0.10;;
75209;SDS011;63796;53.136;14.882;2023-12-29T07:29:56;1.00;;;0.10;;
75209;SDS011;63796;53.136;14.882;2023-12-29T07:32:24;4.90;;;0.20;;
75209;SDS011;63796;53.136;14.882;2023-12-29T07:34:51;1.40;;;0.30;;
75209;SDS011;63796;53.136;14.882;2023-12-29T07:37:19;1.00;;;0.20;;
75209;SDS011;63796;53.136;14.882;2023-12-29T07:39:46;0.50;;;0.30;;
75209;SDS011;63796;53.136;14.882;2023-12-29T07:42:15;0.80;;;0.10;;
75209;SDS011;63796;53.136;14.882;2023-12-29T07:44:44;0.90;;;0.30;;
75209;SDS011;63796;53.136;14.882;2023-12-29T07:47:11;1.50;;;0.60;;
75209;SDS011;63796;53.136;14.882;2023-12-29T07:49:41;1.40;;;0.50;;
75209;SDS011;63796;53.136;14.882;2023-12-29T07:52:09;0.80;;;0.10;;
75209;SDS011;63796;53.136;14.882;2023-12-29T07:54:36;2.10;;;0.30;;
75209;SDS011;63796;53.136;14.882;2023-12-29T07:57:03;2.40;;;0.30;;
75209;SDS011;63796;53.136;14.882;2023-12-29T07:59:31;0.20;;;0.00;;
75209;SDS011;63796;53.136;14.882;2023-12-29T08:01:58;0.60;;;0.10;;
75209;SDS011;63796;53.136;14.882;2023-12-29T08:04:26;0.70;;;0.20;;
75209;SDS011;63796;53.136;14.882;2023-12-29T08:06:53;1.70;;;0.30;;
75209;SDS011;63796;53.136;14.882;2023-12-29T08:09:21;0.30;;;0.10;;
75209;SDS011;63796;53.136;14.882;2023-12-29T08:11:49;1.70;;;0.20;;
75209;SDS011;63796;53.136;14.882;2023-12-29T08:14:17;3.70;;;0.20;;
75209;SDS011;63796;53.136;14.882;2023-12-29T08:16:44;2.30;;;0.50;;
75209;SDS011;63796;53.136;14.882;2023-12-29T08:19:12;0.30;;;0.00;;
75209;SDS011;63796;53.136;14.882;2023-12-29T08:21:41;3.90;;;0.40;;
75209;SDS011;63796;53.136;14.882;2023-12-29T08:24:08;1.00;;;0.30;;
75209;SDS011;63796;53.136;14.882;2023-12-29T08:26:44;1.40;;;0.60;;
75209;SDS011;63796;53.136;14.882;2023-12-29T08:29:13;1.60;;;0.40;;
75209;SDS011;63796;53.136;14.882;2023-12-29T08:31:42;0.90;;;0.20;;
75209;SDS011;63796;53.136;14.882;2023-12-29T08:34:10;0.60;;;0.20;;
75209;SDS011;63796;53.136;14.882;2023-12-29T08:36:38;1.60;;;0.10;;
75209;SDS011;63796;53.136;14.882;2023-12-29T08:39:05;0.30;;;0.10;;
75209;SDS011;63796;53.136;14.882;2023-12-29T08:41:33;3.00;;;0.60;;
75209;SDS011;63796;53.136;14.882;2023-12-29T08:44:00;1.10;;;0.30;;
75209;SDS011;63796;53.136;14.882;2023-12-29T08:46:28;3.40;;;0.80;;
75209;SDS011;63796;53.136;14.882;2023-12-29T08:48:56;7.40;;;0.90;;
75209;SDS011;63796;53.136;14.882;2023-12-29T08:51:24;0.90;;;0.30;;
75209;SDS011;63796;53.136;14.882;2023-12-29T08:53:51;2.40;;;0.50;;
75209;SDS011;63796;53.136;14.882;2023-12-29T08:56:18;7.10;;;1.90;;
75209;SDS011;63796;53.136;14.882;2023-12-29T08:58:46;1.30;;;0.60;;
75209;SDS011;63796;53.136;14.882;2023-12-29T09:01:14;2.30;;;0.60;;
75209;SDS011;63796;53.136;14.882;2023-12-29T09:03:41;2.90;;;1.40;;
75209;SDS011;63796;53.136;14.882;2023-12-29T09:06:09;1.30;;;0.40;;
75209;SDS011;63796;53.136;14.882;2023-12-29T09:08:37;2.90;;;0.50;;
75209;SDS011;63796;53.136;14.882;2023-12-29T09:11:05;7.30;;;2.50;;
75209;SDS011;63796;53.136;14.882;2023-12-29T09:13:32;0.70;;;0.30;;
75209;SDS011;63796;53.136;14.882;2023-12-29T09:16:00;6.00;;;1.00;;
75209;SDS011;63796;53.136;14.882;2023-12-29T09:18:27;1.30;;;0.60;;
75209;SDS011;63796;53.136;14.882;2023-12-29T09:20:55;3.10;;;0.30;;
75209;SDS011;63796;53.136;14.882;2023-12-29T09:23:22;1.10;;;0.50;;
75209;SDS011;63796;53.136;14.882;2023-12-29T09:25:50;1.30;;;0.20;;
75209;SDS011;63796;53.136;14.882;2023-12-29T09:28:17;2.70;;;0.30;;
75209;SDS011;63796;53.136;14.882;2023-12-29T09:30:45;1.90;;;0.40;;
75209;SDS011;63796;53.136;14.882;2023-12-29T09:33:13;4.80;;;1.60;;
75209;SDS011;63796;53.136;14.882;2023-12-29T09:35:40;0.70;;;0.40;;
75209;SDS011;63796;53.136;14.882;2023-12-29T09:38:08;0.80;;;0.20;;
75209;SDS011;63796;53.136;14.882;2023-12-29T09:40:36;7.30;;;1.80;;
75209;SDS011;63796;53.136;14.882;2023-12-29T09:43:04;7.10;;;2.00;;
75209;SDS011;63796;53.136;14.882;2023-12-29T09:45:37;1.90;;;0.70;;
75209;SDS011;63796;53.136;14.882;2023-12-29T09:48:07;2.90;;;0.90;;
75209;SDS011;63796;53.136;14.882;2023-12-29T09:50:37;2.60;;;1.00;;
75209;SDS011;63796;53.136;14.882;2023-12-29T09:53:05;2.40;;;0.40;;
75209;SDS011;63796;53.136;14.882;2023-12-29T09:55:33;1.50;;;0.50;;
75209;SDS011;63796;53.136;14.882;2023-12-29T09:58:01;5.80;;;1.80;;
75209;SDS011;63796;53.136;14.882;2023-12-29T10:00:31;3.50;;;1.10;;
75209;SDS011;63796;53.136;14.882;2023-12-29T10:03:00;6.80;;;2.40;;
75209;SDS011;63796;53.136;14.882;2023-12-29T10:05:27;6.30;;;2.10;;
75209;SDS011;63796;53.136;14.882;2023-12-29T10:07:56;5.30;;;1.30;;
75209;SDS011;63796;53.136;14.882;2023-12-29T10:10:26;4.10;;;1.70;;
75209;SDS011;63796;53.136;14.882;2023-12-29T10:12:54;4.40;;;2.20;;
75209;SDS011;63796;53.136;14.882;2023-12-29T10:15:39;15.80;;;4.90;;
75209;SDS011;63796;53.136;14.882;2023-12-29T10:21:04;8.90;;;4.30;;
75209;SDS011;63796;53.136;14.882;2023-12-29T10:23:42;3.40;;;1.30;;
75209;SDS011;63796;53.136;14.882;2023-12-29T10:26:11;2.40;;;1.20;;
75209;SDS011;63796;53.136;14.882;2023-12-29T10:28:39;11.50;;;3.50;;
75209;SDS011;63796;53.136;14.882;2023-12-29T10:31:09;35.80;;;12.00;;
75209;SDS011;63796;53.136;14.882;2023-12-29T10:33:41;4.90;;;1.70;;
75209;SDS011;63796;53.136;14.882;2023-12-29T10:36:08;3.60;;;1.70;;
75209;SDS011;63796;53.136;14.882;2023-12-29T10:38:39;4.40;;;2.20;;
75209;SDS011;63796;53.136;14.882;2023-12-29T10:41:18;1.40;;;0.90;;
75209;SDS011;63796;53.136;14.882;2023-12-29T10:43:47;4.20;;;1.50;;
75209;SDS011;63796;53.136;14.882;2023-12-29T10:46:14;7.50;;;2.30;;
75209;SDS011;63796;53.136;14.882;2023-12-29T10:48:42;11.20;;;2.90;;
75209;SDS011;63796;53.136;14.882;2023-12-29T10:51:09;1.80;;;0.70;;
75209;SDS011;63796;53.136;14.882;2023-12-29T10:53:37;6.70;;;2.90;;
75209;SDS011;63796;53.136;14.882;2023-12-29T10:56:17;3.20;;;1.30;;
75209;SDS011;63796;53.136;14.882;2023-12-29T10:58:59;11.10;;;3.90;;
75209;SDS011;63796;53.136;14.882;2023-12-29T11:01:28;4.10;;;1.40;;
75209;SDS011;63796;53.136;14.882;2023-12-29T11:04:15;8.70;;;2.70;;
75209;SDS011;63796;53.136;14.882;2023-12-29T11:06:47;24.90;;;8.70;;
75209;SDS011;63796;53.136;14.882;2023-12-29T11:09:27;6.80;;;3.40;;
75209;SDS011;63796;53.136;14.882;2023-12-29T11:12:00;24.50;;;9.40;;
75209;SDS011;63796;53.136;14.882;2023-12-29T11:14:28;14.00;;;5.70;;
75209;SDS011;63796;53.136;14.882;2023-12-29T11:16:59;11.70;;;4.50;;
75209;SDS011;63796;53.136;14.882;2023-12-29T11:19:27;31.00;;;15.90;;
75209;SDS011;63796;53.136;14.882;2023-12-29T11:21:55;26.10;;;11.90;;
75209;SDS011;63796;53.136;14.882;2023-12-29T11:24:23;28.30;;;13.40;;
75209;SDS011;63796;53.136;14.882;2023-12-29T11:27:06;9.90;;;5.00;;
75209;SDS011;63796;53.136;14.882;2023-12-29T11:29:35;17.20;;;8.00;;
75209;SDS011;63796;53.136;14.882;2023-12-29T11:32:04;12.70;;;4.60;;
75209;SDS011;63796;53.136;14.882;2023-12-29T11:34:36;7.90;;;3.10;;
75209;SDS011;63796;53.136;14.882;2023-12-29T11:37:15;19.80;;;11.40;;
75209;SDS011;63796;53.136;14.882;2023-12-29T11:39:53;15.80;;;8.40;;
75209;SDS011;63796;53.136;14.882;2023-12-29T11:42:33;18.00;;;8.50;;
75209;SDS011;63796;53.136;14.882;2023-12-29T11:47:55;10.80;;;4.60;;
75209;SDS011;63796;53.136;14.882;2023-12-29T11:52:55;15.80;;;5.20;;
75209;SDS011;63796;53.136;14.882;2023-12-29T11:55:28;9.10;;;4.00;;
75209;SDS011;63796;53.136;14.882;2023-12-29T11:57:56;8.70;;;3.00;;
75209;SDS011;63796;53.136;14.882;2023-12-29T12:00:45;6.30;;;3.20;;
75209;SDS011;63796;53.136;14.882;2023-12-29T12:03:26;11.10;;;4.10;;
75209;SDS011;63796;53.136;14.882;2023-12-29T12:05:55;6.00;;;1.70;;
75209;SDS011;63796;53.136;14.882;2023-12-29T12:08:31;2.00;;;0.80;;
75209;SDS011;63796;53.136;14.882;2023-12-29T12:14:03;2.40;;;0.80;;
75209;SDS011;63796;53.136;14.882;2023-12-29T12:19:13;4.50;;;0.80;;
75209;SDS011;63796;53.136;14.882;2023-12-29T12:21:45;6.00;;;1.00;;
75209;SDS011;63796;53.136;14.882;2023-12-29T12:24:18;10.10;;;2.10;;
75209;SDS011;63796;53.136;14.882;2023-12-29T12:26:45;1.90;;;0.70;;
75209;SDS011;63796;53.136;14.882;2023-12-29T12:29:13;12.50;;;5.80;;
75209;SDS011;63796;53.136;14.882;2023-12-29T12:34:22;8.60;;;3.40;;
75209;SDS011;63796;53.136;14.882;2023-12-29T12:36:53;2.60;;;0.80;;
75209;SDS011;63796;53.136;14.882;2023-12-29T12:39:23;1.70;;;0.40;;
75209;SDS011;63796;53.136;14.882;2023-12-29T12:41:51;11.70;;;5.30;;
75209;SDS011;63796;53.136;14.882;2023-12-29T12:44:19;6.30;;;1.90;;
75209;SDS011;63796;53.136;14.882;2023-12-29T12:49:15;3.90;;;0.60;;
75209;SDS011;63796;53.136;14.882;2023-12-29T12:51:42;2.40;;;0.20;;
75209;SDS011;63796;53.136;14.882;2023-12-29T12:54:11;1.80;;;0.80;;
75209;SDS011;63796;53.136;14.882;2023-12-29T12:56:42;3.10;;;1.20;;
75209;SDS011;63796;53.136;14.882;2023-12-29T12:59:11;2.10;;;0.50;;
75209;SDS011;63796;53.136;14.882;2023-12-29T13:01:39;3.90;;;0.80;;
75209;SDS011;63796;53.136;14.882;2023-12-29T13:04:08;2.20;;;0.20;;
75209;SDS011;63796;53.136;14.882;2023-12-29T13:06:41;1.20;;;0.30;;
75209;SDS011;63796;53.136;14.882;2023-12-29T13:09:14;4.70;;;0.50;;
75209;SDS011;63796;53.136;14.882;2023-12-29T13:11:47;2.30;;;0.50;;
75209;SDS011;63796;53.136;14.882;2023-12-29T13:14:21;2.40;;;0.30;;
75209;SDS011;63796;53.136;14.882;2023-12-29T13:16:50;4.70;;;0.60;;
75209;SDS011;63796;53.136;14.882;2023-12-29T13:19:20;3.80;;;0.80;;
75209;SDS011;63796;53.136;14.882;2023-12-29T13:21:50;2.60;;;1.00;;
75209;SDS011;63796;53.136;14.882;2023-12-29T13:24:18;1.30;;;0.20;;
75209;SDS011;63796;53.136;14.882;2023-12-29T13:26:47;0.90;;;0.20;;
75209;SDS011;63796;53.136;14.882;2023-12-29T13:29:21;1.50;;;0.30;;
75209;SDS011;63796;53.136;14.882;2023-12-29T13:31:50;1.30;;;0.30;;
75209;SDS011;63796;53.136;14.882;2023-12-29T13:34:30;2.60;;;0.30;;
75209;SDS011;63796;53.136;14.882;2023-12-29T13:37:08;5.20;;;0.70;;
75209;SDS011;63796;53.136;14.882;2023-12-29T13:39:52;2.70;;;0.40;;
75209;SDS011;63796;53.136;14.882;2023-12-29T13:42:24;2.30;;;0.20;;
75209;SDS011;63796;53.136;14.882;2023-12-29T13:44:54;2.10;;;0.40;;
75209;SDS011;63796;53.136;14.882;2023-12-29T13:47:22;2.00;;;0.40;;
75209;SDS011;63796;53.136;14.882;2023-12-29T13:49:50;2.00;;;0.40;;
75209;SDS011;63796;53.136;14.882;2023-12-29T13:52:18;2.80;;;0.30;;
75209;SDS011;63796;53.136;14.882;2023-12-29T13:54:48;2.00;;;0.40;;
75209;SDS011;63796;53.136;14.882;2023-12-29T13:57:16;2.60;;;0.30;;
75209;SDS011;63796;53.136;14.882;2023-12-29T13:59:45;4.00;;;0.50;;
75209;SDS011;63796;53.136;14.882;2023-12-29T14:02:23;2.00;;;0.40;;
75209;SDS011;63796;53.136;14.882;2023-12-29T14:05:20;2.50;;;0.50;;
75209;SDS011;63796;53.136;14.882;2023-12-29T14:07:59;1.30;;;0.50;;
75209;SDS011;63796;53.136;14.882;2023-12-29T14:10:33;1.50;;;0.40;;
75209;SDS011;63796;53.136;14.882;2023-12-29T14:13:16;1.30;;;0.40;;
75209;SDS011;63796;53.136;14.882;2023-12-29T14:15:58;1.80;;;0.60;;
75209;SDS011;63796;53.136;14.882;2023-12-29T14:21:24;1.00;;;0.40;;
75209;SDS011;63796;53.136;14.882;2023-12-29T14:24:11;2.80;;;0.70;;
75209;SDS011;63796;53.136;14.882;2023-12-29T14:26:54;1.20;;;0.40;;
75209;SDS011;63796;53.136;14.882;2023-12-29T14:29:26;1.50;;;0.80;;
75209;SDS011;63796;53.136;14.882;2023-12-29T14:31:54;8.00;;;2.50;;
75209;SDS011;63796;53.136;14.882;2023-12-29T14:34:27;24.70;;;12.90;;
75209;SDS011;63796;53.136;14.882;2023-12-29T14:36:55;11.50;;;6.00;;
75209;SDS011;63796;53.136;14.882;2023-12-29T14:39:22;12.40;;;6.30;;
75209;SDS011;63796;53.136;14.882;2023-12-29T14:41:50;10.60;;;3.50;;
75209;SDS011;63796;53.136;14.882;2023-12-29T14:44:20;6.00;;;1.40;;
75209;SDS011;63796;53.136;14.882;2023-12-29T14:46:47;4.10;;;1.20;;
75209;SDS011;63796;53.136;14.882;2023-12-29T14:49:14;5.40;;;2.60;;
75209;SDS011;63796;53.136;14.882;2023-12-29T14:51:42;10.60;;;5.70;;
75209;SDS011;63796;53.136;14.882;2023-12-29T14:54:09;9.30;;;3.30;;
75209;SDS011;63796;53.136;14.882;2023-12-29T14:56:37;14.20;;;6.10;;
75209;SDS011;63796;53.136;14.882;2023-12-29T14:59:04;24.10;;;10.10;;
75209;SDS011;63796;53.136;14.882;2023-12-29T15:01:39;6.40;;;2.80;;
75209;SDS011;63796;53.136;14.882;2023-12-29T15:04:06;28.00;;;7.70;;
75209;SDS011;63796;53.136;14.882;2023-12-29T15:06:33;23.10;;;11.60;;
75209;SDS011;63796;53.136;14.882;2023-12-29T15:09:01;9.40;;;4.30;;
75209;SDS011;63796;53.136;14.882;2023-12-29T15:11:28;23.40;;;11.00;;